UUMO

Ostafyevo International Airport

Moscow, Russian Federation
TAF UUMO 191656Z 1918/2003 27003MPS 9999 SCT030 TEMPO 1918/2003 29007MPS
Issued Valid From Valid To
Sep-19 @ 16:56 UTC
(8 hours ago)
Sep-19 @ 18:00 UTC
(7 hours ago)
Sep-20 @ 03:00 UTC
(in 2 hours)
Sep-19 @ 18:00 to Sep-20 @ 03:00
TAF UUMO 191656Z 1918/2003 27003MPS 9999 SCT030
Wind Visibility Clouds
270° at 6 knots 10,000+ meters
  • Scattered at 3,000' AGL
Temporary Sep-19 @ 18:00 to Sep-20 @ 03:00
TEMPO 1918/2003 29007MPS
Wind
290° at 14 knots
TAF UUMO 191656Z 1918/2003 27003MPS 9999 SCT030 TEMPO 1918/2003 29007MPS
Issued Sep-19 @ 16:56 UTC
(8 hours ago)
Valid From Sep-19 @ 18:00 UTC
(7 hours ago)
Valid To Sep-20 @ 03:00 UTC
(in 2 hours)
Sep-19 @ 18:00 - Sep-20 @ 03:00
Wind Visibility
270° at 6 knots 10,000+ meters
Clouds
  • Scattered at 3,000' AGL
Temporary Sep-19 @ 18:00 - Sep-20 @ 03:00
Wind
290° at 14 knots